createdAt,value
2019-03-28T00:01:35.054Z,93.20
2019-03-28T00:04:11.420Z,93.15
2019-03-28T00:06:46.127Z,92.78
2019-03-28T00:09:20.671Z,92.58
2019-03-28T00:11:55.279Z,92.63
2019-03-28T00:14:31.360Z,93.22
2019-03-28T00:17:05.924Z,92.35
2019-03-28T00:19:40.528Z,92.71
2019-03-28T00:22:21.686Z,92.99
2019-03-28T00:25:04.092Z,93.05
2019-03-28T00:27:38.703Z,93.38
2019-03-28T00:30:14.589Z,92.11
2019-03-28T00:32:49.119Z,92.22
2019-03-28T00:35:26.203Z,92.16
2019-03-28T00:38:00.906Z,91.99
2019-03-28T00:40:37.275Z,92.25
2019-03-28T00:43:11.779Z,92.79
2019-03-28T00:45:46.834Z,93.01
2019-03-28T00:48:21.347Z,93.06
2019-03-28T00:50:56.017Z,93.06
2019-03-28T00:53:31.150Z,93.37
2019-03-28T00:56:06.243Z,93.93
2019-03-28T00:58:40.790Z,94.07
2019-03-28T01:01:15.338Z,93.54
2019-03-28T01:03:49.920Z,93.49
2019-03-28T01:06:26.809Z,93.35
2019-03-28T01:09:04.083Z,93.35
2019-03-28T01:11:37.757Z,93.25
2019-03-28T01:14:12.229Z,94.00
2019-03-28T01:16:47.061Z,94.21
2019-03-28T01:19:21.625Z,93.53
2019-03-28T01:21:57.126Z,93.52
2019-03-28T01:24:31.726Z,93.10
2019-03-28T01:27:06.208Z,93.75
2019-03-28T01:29:40.724Z,93.20
2019-03-28T01:32:16.756Z,93.04
2019-03-28T01:34:51.341Z,93.09
2019-03-28T01:37:27.749Z,93.03
2019-03-28T01:40:04.218Z,92.33
2019-03-28T01:42:38.758Z,92.17
2019-03-28T01:45:13.575Z,92.45
2019-03-28T01:47:48.130Z,92.83
2019-03-28T01:50:24.497Z,93.04
2019-03-28T01:52:59.086Z,93.05
2019-03-28T01:55:33.563Z,93.27
2019-03-28T01:58:10.088Z,93.32
2019-03-28T02:00:44.987Z,93.50
2019-03-28T02:03:19.712Z,92.98
2019-03-28T02:05:54.269Z,92.85
2019-03-28T02:08:28.831Z,93.67
2019-03-28T02:11:03.431Z,93.52
2019-03-28T02:13:39.926Z,93.06
2019-03-28T02:16:14.565Z,92.86
2019-03-28T02:18:49.642Z,92.51
2019-03-28T02:21:24.227Z,92.84
2019-03-28T02:23:58.784Z,93.36
2019-03-28T02:26:34.215Z,93.48
2019-03-28T02:29:08.973Z,93.33
2019-03-28T02:31:43.529Z,93.17
2019-03-28T02:34:18.165Z,93.16
2019-03-28T02:36:52.873Z,93.50
2019-03-28T02:39:27.694Z,94.25
2019-03-28T02:42:02.329Z,94.24
2019-03-28T02:44:37.499Z,94.46
2019-03-28T02:47:12.187Z,94.45
2019-03-28T02:49:46.754Z,94.19
2019-03-28T02:52:21.688Z,94.11
2019-03-28T02:54:58.200Z,94.56
2019-03-28T02:57:41.066Z,94.82
2019-03-28T03:00:10.091Z,95.39
2019-03-28T03:02:44.815Z,95.28
2019-03-28T03:05:21.198Z,94.58
2019-03-28T03:07:55.771Z,94.25
2019-03-28T03:10:31.762Z,94.73
2019-03-28T03:13:06.786Z,94.54
2019-03-28T03:15:41.690Z,94.73
2019-03-28T03:18:21.278Z,95.24
2019-03-28T03:20:54.404Z,94.59
2019-03-28T03:23:29.277Z,94.81
2019-03-28T03:26:05.506Z,95.02
2019-03-28T03:28:40.214Z,95.38
2019-03-28T03:31:20.479Z,95.09
2019-03-28T03:33:53.295Z,94.92
2019-03-28T03:36:27.854Z,94.82
2019-03-28T03:39:02.642Z,95.00
2019-03-28T03:41:37.349Z,95.23
2019-03-28T03:44:11.927Z,95.17
2019-03-28T03:46:47.535Z,95.54
2019-03-28T03:49:22.064Z,95.83
2019-03-28T03:51:57.006Z,95.64
2019-03-28T03:54:31.758Z,95.47
2019-03-28T03:57:06.119Z,95.51
2019-03-28T03:59:41.066Z,95.25
2019-03-28T04:02:15.653Z,95.26
2019-03-28T04:04:50.327Z,95.11
2019-03-28T04:07:26.567Z,95.67
2019-03-28T04:10:01.168Z,95.75
2019-03-28T04:12:35.821Z,96.30
2019-03-28T04:15:10.601Z,96.13
2019-03-28T04:17:47.729Z,96.11
2019-03-28T04:20:22.739Z,95.87
2019-03-28T04:22:57.809Z,96.07
2019-03-28T04:25:32.383Z,96.36
2019-03-28T04:28:08.318Z,96.22
2019-03-28T04:30:44.266Z,96.12
2019-03-28T04:33:18.803Z,96.08
2019-03-28T04:35:53.841Z,95.77
2019-03-28T04:38:28.730Z,95.60
2019-03-28T04:41:03.291Z,95.59
2019-03-28T04:43:37.935Z,95.66
2019-03-28T04:46:12.539Z,95.44
2019-03-28T04:48:47.165Z,95.06
2019-03-28T04:51:21.731Z,94.87
2019-03-28T04:53:58.147Z,95.12
2019-03-28T04:56:32.587Z,95.57
2019-03-28T04:59:09.152Z,95.67
2019-03-28T05:01:43.784Z,95.59
2019-03-28T05:04:21.122Z,95.78
2019-03-28T05:06:54.764Z,95.74
2019-03-28T05:09:29.422Z,95.99
2019-03-28T05:12:04.232Z,96.35
2019-03-28T05:14:38.789Z,96.60
2019-03-28T05:17:17.410Z,96.72
2019-03-28T05:19:54.125Z,96.58
2019-03-28T05:22:29.050Z,96.64
2019-03-28T05:25:03.606Z,96.80
2019-03-28T05:27:38.231Z,96.74
2019-03-28T05:30:13.981Z,96.95
2019-03-28T05:32:48.677Z,97.02
2019-03-28T05:35:23.286Z,96.85
2019-03-28T05:37:57.795Z,97.05
2019-03-28T05:40:34.066Z,97.08
2019-03-28T05:43:12.210Z,97.07
2019-03-28T05:45:47.664Z,96.63
2019-03-28T05:48:22.259Z,95.93
2019-03-28T05:50:56.879Z,95.00
2019-03-28T05:53:31.542Z,94.79
2019-03-28T05:56:06.178Z,94.61
2019-03-28T05:58:40.622Z,94.31
2019-03-28T06:01:14.994Z,93.81
2019-03-28T06:03:49.436Z,92.72
2019-03-28T06:06:24.171Z,91.99
2019-03-28T06:08:58.919Z,90.64
2019-03-28T06:11:35.277Z,89.08
2019-03-28T06:14:10.212Z,87.78
2019-03-28T06:16:45.037Z,86.91
2019-03-28T06:19:20.016Z,84.34
2019-03-28T06:21:54.526Z,84.10
2019-03-28T06:24:29.029Z,82.20
2019-03-28T06:27:03.580Z,82.05
2019-03-28T06:29:38.085Z,82.47
2019-03-28T06:32:12.748Z,81.70
2019-03-28T06:34:47.431Z,81.19
2019-03-28T06:37:22.133Z,79.96
2019-03-28T06:39:58.420Z,78.22
2019-03-28T06:42:33.057Z,71.96
2019-03-28T06:45:09.763Z,73.65
2019-03-28T06:47:44.319Z,75.63
2019-03-28T06:50:19.029Z,77.50
2019-03-28T06:52:53.722Z,79.34
2019-03-28T06:55:28.212Z,79.70
2019-03-28T06:58:02.764Z,80.34
2019-03-28T07:00:39.240Z,80.78
2019-03-28T07:03:13.941Z,81.50
2019-03-28T07:05:48.839Z,81.93
2019-03-28T07:08:25.451Z,82.22
2019-03-28T07:11:00.632Z,82.19
2019-03-28T07:13:37.163Z,82.51
2019-03-28T07:16:13.526Z,82.57
2019-03-28T07:18:48.092Z,78.46
2019-03-28T07:21:22.568Z,68.88
2019-03-28T07:23:58.756Z,69.39
2019-03-28T07:26:33.308Z,70.26
2019-03-28T07:29:08.091Z,70.85
2019-03-28T07:31:42.671Z,72.05
2019-03-28T07:34:17.281Z,70.25
2019-03-28T07:36:51.868Z,68.97
2019-03-28T07:39:26.779Z,68.86
2019-03-28T07:42:01.843Z,69.65
2019-03-28T07:44:37.639Z,65.26
2019-03-28T07:47:12.584Z,65.44
2019-03-28T07:49:47.236Z,66.11
2019-03-28T07:52:24.469Z,66.91
2019-03-28T07:54:59.224Z,66.94
2019-03-28T07:57:34.815Z,68.12
2019-03-28T08:00:10.990Z,68.25
2019-03-28T08:02:47.303Z,67.82
2019-03-28T08:05:21.878Z,68.32
2019-03-28T08:07:56.554Z,69.64
2019-03-28T08:10:31.335Z,68.63
2019-03-28T08:13:07.590Z,67.29
2019-03-28T08:15:42.163Z,66.84
2019-03-28T08:18:16.746Z,66.80
2019-03-28T08:20:51.279Z,63.76
2019-03-28T08:23:26.813Z,62.66
2019-03-28T08:26:03.356Z,64.17
2019-03-28T08:28:37.954Z,67.10
2019-03-28T08:31:12.640Z,67.88
2019-03-28T08:33:49.062Z,69.26
2019-03-28T08:36:23.648Z,69.71
2019-03-28T08:38:58.675Z,68.95
2019-03-28T08:41:33.283Z,67.66
2019-03-28T08:44:08.026Z,68.48
2019-03-28T08:46:42.594Z,65.56
2019-03-28T08:49:17.236Z,63.00
2019-03-28T08:51:53.289Z,58.98
2019-03-28T08:54:28.038Z,55.66
2019-03-28T08:57:03.129Z,54.76
2019-03-28T08:59:39.482Z,54.81
2019-03-28T09:02:14.388Z,58.93
2019-03-28T09:04:50.720Z,58.86
2019-03-28T09:07:27.124Z,57.19
2019-03-28T09:10:01.927Z,56.00
2019-03-28T09:12:38.431Z,58.09
2019-03-28T09:15:14.489Z,57.68
2019-03-28T09:17:51.080Z,57.78
2019-03-28T09:20:25.891Z,57.09
2019-03-28T09:23:00.625Z,56.77
2019-03-28T09:25:35.143Z,56.74
2019-03-28T09:28:11.504Z,57.24
2019-03-28T09:30:49.382Z,55.44
2019-03-28T09:33:22.653Z,55.35
2019-03-28T09:35:57.334Z,56.18
2019-03-28T09:38:33.104Z,57.92
2019-03-28T09:41:09.598Z,58.11
2019-03-28T09:43:54.691Z,59.93
2019-03-28T09:46:20.635Z,61.26
2019-03-28T09:48:55.186Z,60.95
2019-03-28T09:51:31.151Z,61.79
2019-03-28T09:54:05.821Z,60.97
2019-03-28T09:56:42.332Z,58.40
2019-03-28T09:59:18.597Z,57.12
2019-03-28T10:01:53.135Z,55.80
2019-03-28T10:04:28.868Z,55.62
2019-03-28T10:07:03.484Z,56.22
2019-03-28T10:09:41.296Z,55.18
2019-03-28T10:12:16.303Z,55.63
2019-03-28T10:14:52.699Z,54.95
2019-03-28T10:17:28.758Z,54.66
2019-03-28T10:20:03.179Z,52.39
2019-03-28T10:22:37.910Z,52.68
2019-03-28T10:25:14.489Z,54.86
2019-03-28T10:27:51.069Z,55.62
2019-03-28T10:30:43.228Z,56.33
2019-03-28T10:33:19.437Z,56.68
2019-03-28T10:35:54.019Z,57.59
2019-03-28T10:38:29.507Z,56.76
2019-03-28T10:41:04.178Z,53.67
2019-03-28T10:43:38.662Z,52.81
2019-03-28T10:46:13.785Z,53.56
2019-03-28T10:48:49.963Z,54.00
2019-03-28T10:51:24.527Z,55.75
2019-03-28T10:53:59.015Z,55.38
2019-03-28T10:56:35.475Z,56.40
2019-03-28T10:59:22.734Z,58.21
2019-03-28T11:01:50.525Z,56.72
2019-03-28T11:04:23.054Z,55.17
2019-03-28T11:06:59.408Z,53.51
2019-03-28T11:09:34.937Z,53.11
2019-03-28T11:12:11.521Z,53.97
2019-03-28T11:14:46.524Z,51.18
2019-03-28T11:17:23.263Z,52.08
2019-03-28T11:19:58.745Z,52.14
2019-03-28T11:22:35.066Z,52.89
2019-03-28T11:25:10.195Z,52.82
2019-03-28T11:27:47.065Z,52.91
2019-03-28T11:30:22.394Z,53.38
2019-03-28T11:32:58.780Z,53.85
2019-03-28T11:35:33.397Z,52.73
2019-03-28T11:38:09.813Z,53.08
2019-03-28T11:40:44.699Z,53.42
2019-03-28T11:43:21.283Z,53.47
2019-03-28T11:45:56.214Z,53.56
2019-03-28T11:48:32.937Z,55.40
2019-03-28T11:51:07.544Z,54.93
2019-03-28T11:53:42.362Z,54.81
2019-03-28T11:56:17.304Z,54.11
2019-03-28T11:58:51.836Z,54.29
2019-03-28T12:01:26.467Z,55.57
2019-03-28T12:04:03.254Z,55.44
2019-03-28T12:06:38.333Z,55.56
2019-03-28T12:09:12.975Z,56.24
2019-03-28T12:11:47.562Z,56.62
2019-03-28T12:14:24.158Z,55.82
2019-03-28T12:16:59.090Z,56.52
2019-03-28T12:19:33.706Z,55.84
2019-03-28T12:22:08.407Z,55.50
2019-03-28T12:24:43.443Z,56.64
2019-03-28T12:27:20.155Z,56.43
2019-03-28T12:29:56.837Z,55.49
2019-03-28T12:32:31.496Z,56.16
2019-03-28T12:35:07.096Z,55.76
2019-03-28T12:37:43.614Z,56.12
2019-03-28T12:40:18.678Z,56.71
2019-03-28T12:42:53.752Z,56.96
2019-03-28T12:45:29.935Z,57.78
2019-03-28T12:48:06.185Z,58.54
2019-03-28T12:50:42.894Z,58.47
2019-03-28T12:53:18.090Z,58.61
2019-03-28T12:55:54.073Z,59.09
2019-03-28T12:58:28.590Z,59.45
2019-03-28T13:01:03.298Z,59.51
2019-03-28T13:03:45.449Z,60.00
2019-03-28T13:06:14.791Z,60.43
2019-03-28T13:08:51.186Z,59.36
2019-03-28T13:11:27.254Z,59.60
2019-03-28T13:14:01.965Z,59.15
2019-03-28T13:16:38.431Z,58.76
2019-03-28T13:19:13.130Z,59.33
2019-03-28T13:21:49.465Z,59.83
2019-03-28T13:24:26.001Z,60.14
2019-03-28T13:27:00.769Z,59.95
2019-03-28T13:29:37.598Z,60.43
2019-03-28T13:32:12.120Z,60.24
2019-03-28T13:34:48.624Z,61.45
2019-03-28T13:37:26.189Z,61.08
2019-03-28T13:40:00.747Z,60.59
2019-03-28T13:42:35.442Z,60.97
2019-03-28T13:45:14.547Z,61.05
2019-03-28T13:47:49.286Z,60.82
2019-03-28T13:50:25.526Z,60.92
2019-03-28T13:53:03.348Z,59.42
2019-03-28T13:55:38.065Z,59.51
2019-03-28T13:58:13.782Z,59.42
2019-03-28T14:00:48.730Z,59.67
2019-03-28T14:03:23.404Z,59.19
2019-03-28T14:05:58.514Z,59.51
2019-03-28T14:08:33.205Z,58.94
2019-03-28T14:11:09.219Z,59.51
2019-03-28T14:13:44.076Z,59.16
2019-03-28T14:16:19.440Z,59.45
2019-03-28T14:18:54.165Z,59.02
2019-03-28T14:21:30.635Z,59.24
2019-03-28T14:24:05.509Z,59.46
2019-03-28T14:26:42.575Z,60.05
2019-03-28T14:29:18.171Z,59.73
2019-03-28T14:31:52.833Z,60.33
2019-03-28T14:34:28.597Z,60.38
2019-03-28T14:37:03.485Z,60.18
2019-03-28T14:39:38.098Z,59.94
2019-03-28T14:42:13.501Z,60.57
2019-03-28T14:44:48.661Z,60.21
2019-03-28T14:47:24.239Z,59.22
2019-03-28T14:49:59.346Z,59.58
2019-03-28T14:52:35.227Z,59.76
2019-03-28T14:55:10.610Z,59.51
2019-03-28T14:57:46.623Z,60.17
2019-03-28T15:00:47.638Z,59.70
2019-03-28T15:03:26.912Z,60.49
2019-03-28T15:06:02.074Z,60.69
2019-03-28T15:08:38.871Z,60.69
2019-03-28T15:11:13.484Z,61.82
2019-03-28T15:13:50.915Z,62.17
2019-03-28T15:16:27.181Z,62.64
2019-03-28T15:19:05.185Z,62.62
2019-03-28T15:21:39.808Z,62.65
2019-03-28T15:24:15.678Z,63.34
2019-03-28T15:26:50.562Z,63.13
2019-03-28T15:29:25.417Z,63.73
2019-03-28T15:32:00.147Z,64.52
2019-03-28T15:34:34.682Z,64.36
2019-03-28T15:37:09.238Z,64.83
2019-03-28T15:39:43.736Z,66.05
2019-03-28T15:42:20.007Z,65.99
2019-03-28T15:44:55.008Z,66.28
2019-03-28T15:47:33.557Z,65.66
2019-03-28T15:50:09.158Z,66.72
2019-03-28T15:52:43.926Z,66.88
2019-03-28T15:55:20.269Z,67.52
2019-03-28T15:57:54.971Z,67.55
2019-03-28T16:00:31.449Z,68.00
2019-03-28T16:03:06.185Z,67.90
2019-03-28T16:05:41.184Z,68.73
2019-03-28T16:08:16.296Z,69.11
2019-03-28T16:10:50.917Z,68.65
2019-03-28T16:13:25.634Z,68.53
2019-03-28T16:16:01.910Z,69.25
2019-03-28T16:18:36.446Z,68.84
2019-03-28T16:21:12.850Z,69.07
2019-03-28T16:23:47.630Z,69.14
2019-03-28T16:26:22.214Z,68.83
2019-03-28T16:28:56.890Z,69.35
2019-03-28T16:31:31.517Z,69.06
2019-03-28T16:34:07.500Z,69.24
2019-03-28T16:36:42.318Z,69.42
2019-03-28T16:39:20.054Z,69.61
2019-03-28T16:41:56.148Z,69.57
2019-03-28T16:44:30.735Z,70.16
2019-03-28T16:47:05.582Z,69.92
2019-03-28T16:49:40.312Z,70.24
2019-03-28T16:52:16.657Z,70.81
2019-03-28T16:54:51.827Z,71.00
2019-03-28T16:57:26.475Z,70.52
2019-03-28T17:00:01.006Z,71.04
2019-03-28T17:02:37.274Z,71.47
2019-03-28T17:05:13.149Z,71.58
2019-03-28T17:07:48.164Z,72.24
2019-03-28T17:10:51.890Z,72.29
2019-03-28T17:13:27.214Z,73.06
2019-03-28T17:16:01.874Z,73.50
2019-03-28T17:18:37.932Z,73.95
2019-03-28T17:21:13.670Z,73.23
2019-03-28T17:23:48.457Z,73.48
2019-03-28T17:26:23.003Z,73.03
2019-03-28T17:28:59.044Z,73.99
2019-03-28T17:31:33.960Z,74.25
2019-03-28T17:34:09.115Z,74.81
2019-03-28T17:36:44.452Z,74.98
2019-03-28T17:39:19.183Z,75.26
2019-03-28T17:41:53.907Z,75.52
2019-03-28T17:44:28.601Z,75.58
2019-03-28T17:47:05.058Z,75.85
2019-03-28T17:49:40.104Z,76.36
2019-03-28T17:52:15.122Z,76.66
2019-03-28T17:54:49.707Z,76.77
2019-03-28T17:57:24.345Z,77.20
2019-03-28T18:00:00.808Z,77.28
2019-03-28T18:02:35.768Z,77.32
2019-03-28T18:05:12.899Z,77.33
2019-03-28T18:07:47.720Z,77.61
2019-03-28T18:10:24.316Z,77.63
2019-03-28T18:13:02.067Z,78.28
2019-03-28T18:15:36.641Z,78.46
2019-03-28T18:18:12.467Z,78.65
2019-03-28T18:20:47.133Z,78.66
2019-03-28T18:23:21.766Z,78.80
2019-03-28T18:25:56.772Z,78.62
2019-03-28T18:28:31.737Z,78.94
2019-03-28T18:31:06.766Z,78.78
2019-03-28T18:33:41.333Z,79.05
2019-03-28T18:36:16.636Z,79.17
2019-03-28T18:38:52.564Z,79.52
2019-03-28T18:41:27.936Z,79.86
2019-03-28T18:44:04.046Z,80.04
2019-03-28T18:46:41.480Z,79.88
2019-03-28T18:49:16.621Z,80.03
2019-03-28T18:51:51.360Z,80.30
2019-03-28T18:54:25.978Z,80.56
2019-03-28T18:57:03.293Z,80.70
2019-03-28T18:59:40.038Z,80.53
2019-03-28T19:02:16.377Z,80.90
2019-03-28T19:04:53.080Z,81.17
2019-03-28T19:07:28.067Z,81.08
2019-03-28T19:10:06.598Z,81.22
2019-03-28T19:12:41.309Z,81.29
2019-03-28T19:15:17.538Z,81.50
2019-03-28T19:17:52.267Z,81.93
2019-03-28T19:20:29.314Z,81.32
2019-03-28T19:23:07.257Z,81.22
2019-03-28T19:25:46.825Z,81.31
2019-03-28T19:28:28.713Z,81.68
2019-03-28T19:31:00.520Z,82.00
2019-03-28T19:33:38.136Z,82.43
2019-03-28T19:36:13.533Z,82.26
2019-03-28T19:38:51.944Z,82.32
2019-03-28T19:41:26.560Z,82.50
2019-03-28T19:44:02.353Z,82.38
2019-03-28T19:46:36.988Z,82.43
2019-03-28T19:49:13.063Z,82.50
2019-03-28T19:51:47.948Z,82.91
2019-03-28T19:54:25.739Z,82.94
2019-03-28T19:57:01.632Z,83.35
2019-03-28T19:59:37.688Z,83.53
2019-03-28T20:02:14.442Z,83.87
2019-03-28T20:04:49.607Z,83.79
2019-03-28T20:07:25.921Z,84.05
2019-03-28T20:10:10.775Z,84.19
2019-03-28T20:12:40.067Z,84.22
2019-03-28T20:15:15.438Z,84.18
2019-03-28T20:17:51.064Z,84.28
2019-03-28T20:20:27.256Z,84.57
2019-03-28T20:23:04.483Z,84.50
2019-03-28T20:25:42.766Z,84.58
2019-03-28T20:28:16.978Z,84.42
2019-03-28T20:30:51.728Z,84.58
2019-03-28T20:33:27.223Z,84.66
2019-03-28T20:36:30.200Z,84.62
2019-03-28T20:38:39.491Z,84.74
2019-03-28T20:41:14.366Z,84.70
2019-03-28T20:43:49.772Z,84.85
2019-03-28T20:46:24.741Z,85.10
2019-03-28T20:49:00.224Z,85.37
2019-03-28T20:51:34.981Z,85.56
2019-03-28T20:54:11.768Z,85.90
2019-03-28T20:56:49.351Z,86.04
2019-03-28T20:59:26.842Z,86.16
2019-03-28T21:02:01.787Z,86.15
2019-03-28T21:04:36.788Z,85.79
2019-03-28T21:07:14.236Z,85.79
2019-03-28T21:09:49.154Z,86.09
2019-03-28T21:12:23.883Z,86.09
2019-03-28T21:14:58.696Z,86.12
2019-03-28T21:17:34.396Z,86.21
2019-03-28T21:20:11.923Z,86.39
2019-03-28T21:22:46.796Z,86.55
2019-03-28T21:25:23.477Z,86.85
2019-03-28T21:27:58.828Z,86.89
2019-03-28T21:30:46.573Z,87.14
2019-03-28T21:33:15.159Z,87.35
2019-03-28T21:35:50.144Z,87.41
2019-03-28T21:38:25.524Z,87.57
2019-03-28T21:41:00.786Z,87.49
2019-03-28T21:43:35.535Z,87.52
2019-03-28T21:46:10.700Z,87.68
2019-03-28T21:48:47.671Z,87.74
2019-03-28T21:51:22.630Z,87.89
2019-03-28T21:53:59.773Z,87.89
2019-03-28T21:56:34.195Z,87.79
2019-03-28T21:59:09.008Z,87.83
2019-03-28T22:01:43.976Z,87.91
2019-03-28T22:04:20.516Z,88.09
2019-03-28T22:06:55.482Z,88.14
2019-03-28T22:09:30.215Z,88.10
2019-03-28T22:12:04.895Z,88.20
2019-03-28T22:14:39.897Z,88.18
2019-03-28T22:17:15.180Z,88.04
2019-03-28T22:19:51.725Z,88.21
2019-03-28T22:22:28.860Z,88.27
2019-03-28T22:25:05.645Z,88.56
2019-03-28T22:27:40.252Z,89.15
2019-03-28T22:30:16.111Z,89.64
2019-03-28T22:32:51.166Z,89.94
2019-03-28T22:35:25.957Z,90.32
2019-03-28T22:38:01.164Z,90.31
2019-03-28T22:40:37.444Z,90.31
2019-03-28T22:43:12.126Z,90.54
2019-03-28T22:45:46.726Z,90.69
2019-03-28T22:48:21.801Z,90.41
2019-03-28T22:50:58.360Z,90.17
2019-03-28T22:53:32.898Z,89.91
2019-03-28T22:56:07.722Z,89.70
2019-03-28T22:58:42.208Z,90.03
2019-03-28T23:01:17.051Z,90.30
2019-03-28T23:03:53.558Z,90.38
2019-03-28T23:06:28.171Z,90.20
2019-03-28T23:09:02.734Z,90.13
2019-03-28T23:11:40.654Z,90.08
2019-03-28T23:14:17.099Z,89.98
2019-03-28T23:16:51.613Z,90.00
2019-03-28T23:19:26.178Z,90.07
2019-03-28T23:22:00.877Z,90.18
2019-03-28T23:24:35.354Z,90.31
2019-03-28T23:27:11.931Z,90.20
2019-03-28T23:29:46.389Z,90.39
2019-03-28T23:32:22.398Z,90.29
2019-03-28T23:34:57.244Z,90.28
2019-03-28T23:37:34.019Z,90.25
2019-03-28T23:40:09.669Z,90.19
2019-03-28T23:42:44.283Z,90.44
2019-03-28T23:45:19.175Z,90.80
2019-03-28T23:47:57.642Z,90.71
2019-03-28T23:50:33.030Z,90.72
2019-03-28T23:53:09.250Z,90.76
2019-03-28T23:55:44.955Z,90.65
2019-03-28T23:58:21.296Z,90.63
